sensor_id;sensor_type;location;lat;lon;timestamp;P1;durP1;ratioP1;P2;durP2;ratioP2
49241;SDS011;35079;52.704;13.814;2022-07-23T00:14:04;7.35;;;5.40;;
49241;SDS011;35079;52.704;13.814;2022-07-23T03:35:23;9.70;;;7.45;;
49241;SDS011;35079;52.704;13.814;2022-07-23T03:55:06;8.40;;;6.97;;
49241;SDS011;35079;52.704;13.814;2022-07-23T03:57:41;8.23;;;6.55;;
49241;SDS011;35079;52.704;13.814;2022-07-23T04:00:19;10.70;;;7.18;;
49241;SDS011;35079;52.704;13.814;2022-07-23T04:02:45;9.25;;;7.10;;
49241;SDS011;35079;52.704;13.814;2022-07-23T04:05:11;8.15;;;6.13;;
49241;SDS011;35079;52.704;13.814;2022-07-23T04:07:36;9.02;;;6.57;;
49241;SDS011;35079;52.704;13.814;2022-07-23T04:10:02;9.02;;;6.75;;
49241;SDS011;35079;52.704;13.814;2022-07-23T04:12:28;10.45;;;6.30;;
49241;SDS011;35079;52.704;13.814;2022-07-23T04:14:54;7.70;;;5.85;;
49241;SDS011;35079;52.704;13.814;2022-07-23T04:17:23;8.73;;;6.00;;
49241;SDS011;35079;52.704;13.814;2022-07-23T04:19:51;10.15;;;5.65;;
49241;SDS011;35079;52.704;13.814;2022-07-23T04:22:20;10.20;;;5.78;;
49241;SDS011;35079;52.704;13.814;2022-07-23T04:24:46;7.53;;;5.50;;
49241;SDS011;35079;52.704;13.814;2022-07-23T04:27:12;9.55;;;5.68;;
49241;SDS011;35079;52.704;13.814;2022-07-23T04:30:19;7.13;;;5.03;;
49241;SDS011;35079;52.704;13.814;2022-07-23T04:32:45;11.40;;;5.72;;
49241;SDS011;35079;52.704;13.814;2022-07-23T04:35:11;6.05;;;5.03;;
49241;SDS011;35079;52.704;13.814;2022-07-23T04:37:37;8.45;;;4.60;;
49241;SDS011;35079;52.704;13.814;2022-07-23T04:40:12;8.77;;;5.07;;
49241;SDS011;35079;52.704;13.814;2022-07-23T04:42:41;7.75;;;4.22;;
49241;SDS011;35079;52.704;13.814;2022-07-23T04:45:12;7.38;;;4.00;;
49241;SDS011;35079;52.704;13.814;2022-07-23T04:47:44;4.93;;;3.80;;
49241;SDS011;35079;52.704;13.814;2022-07-23T04:50:13;6.07;;;3.80;;
49241;SDS011;35079;52.704;13.814;2022-07-23T04:52:42;8.25;;;3.92;;
49241;SDS011;35079;52.704;13.814;2022-07-23T04:55:08;5.47;;;3.72;;
49241;SDS011;35079;52.704;13.814;2022-07-23T04:57:34;6.25;;;3.55;;
49241;SDS011;35079;52.704;13.814;2022-07-23T04:59:59;7.53;;;3.28;;
49241;SDS011;35079;52.704;13.814;2022-07-23T05:02:25;7.55;;;3.65;;
49241;SDS011;35079;52.704;13.814;2022-07-23T05:04:51;5.90;;;3.42;;
49241;SDS011;35079;52.704;13.814;2022-07-23T05:07:17;10.63;;;3.42;;
49241;SDS011;35079;52.704;13.814;2022-07-23T05:09:42;5.70;;;3.05;;
49241;SDS011;35079;52.704;13.814;2022-07-23T05:12:08;8.18;;;3.55;;
49241;SDS011;35079;52.704;13.814;2022-07-23T05:14:34;6.88;;;3.50;;
49241;SDS011;35079;52.704;13.814;2022-07-23T05:16:59;11.48;;;3.92;;
49241;SDS011;35079;52.704;13.814;2022-07-23T05:19:25;16.15;;;5.03;;
49241;SDS011;35079;52.704;13.814;2022-07-23T05:28:49;11.20;;;5.03;;
49241;SDS011;35079;52.704;13.814;2022-07-23T05:58:56;8.52;;;4.20;;
49241;SDS011;35079;52.704;13.814;2022-07-23T06:15:59;8.77;;;4.88;;
49241;SDS011;35079;52.704;13.814;2022-07-23T06:18:34;9.52;;;4.97;;
49241;SDS011;35079;52.704;13.814;2022-07-23T06:21:31;8.35;;;5.40;;
49241;SDS011;35079;52.704;13.814;2022-07-23T06:27:53;9.65;;;5.10;;
49241;SDS011;35079;52.704;13.814;2022-07-23T07:32:57;5.60;;;4.55;;
49241;SDS011;35079;52.704;13.814;2022-07-23T07:35:44;8.45;;;4.90;;
49241;SDS011;35079;52.704;13.814;2022-07-23T07:48:00;7.65;;;5.20;;
49241;SDS011;35079;52.704;13.814;2022-07-23T07:50:29;6.82;;;4.10;;
49241;SDS011;35079;52.704;13.814;2022-07-23T07:52:58;8.52;;;4.70;;
49241;SDS011;35079;52.704;13.814;2022-07-23T07:55:23;8.00;;;4.40;;
49241;SDS011;35079;52.704;13.814;2022-07-23T07:57:49;6.78;;;4.65;;
49241;SDS011;35079;52.704;13.814;2022-07-23T08:00:15;8.60;;;4.30;;
49241;SDS011;35079;52.704;13.814;2022-07-23T08:05:12;9.02;;;5.18;;
49241;SDS011;35079;52.704;13.814;2022-07-23T08:07:39;8.90;;;5.13;;
49241;SDS011;35079;52.704;13.814;2022-07-23T08:10:05;9.30;;;4.70;;
49241;SDS011;35079;52.704;13.814;2022-07-23T08:12:43;5.97;;;4.60;;
49241;SDS011;35079;52.704;13.814;2022-07-23T08:15:14;9.48;;;5.35;;
49241;SDS011;35079;52.704;13.814;2022-07-23T08:17:41;9.13;;;5.10;;
49241;SDS011;35079;52.704;13.814;2022-07-23T08:20:08;7.80;;;4.90;;
49241;SDS011;35079;52.704;13.814;2022-07-23T08:25:33;9.95;;;5.30;;
49241;SDS011;35079;52.704;13.814;2022-07-23T08:28:02;9.85;;;5.68;;
49241;SDS011;35079;52.704;13.814;2022-07-23T08:30:30;10.00;;;5.30;;
49241;SDS011;35079;52.704;13.814;2022-07-23T08:32:57;6.57;;;4.40;;
49241;SDS011;35079;52.704;13.814;2022-07-23T08:35:38;9.40;;;5.07;;
49241;SDS011;35079;52.704;13.814;2022-07-23T08:38:09;6.53;;;3.63;;
49241;SDS011;35079;52.704;13.814;2022-07-23T08:40:37;7.47;;;4.43;;
49241;SDS011;35079;52.704;13.814;2022-07-23T08:43:08;7.38;;;4.97;;
49241;SDS011;35079;52.704;13.814;2022-07-23T08:45:42;7.40;;;3.58;;
49241;SDS011;35079;52.704;13.814;2022-07-23T08:48:13;7.35;;;4.13;;
49241;SDS011;35079;52.704;13.814;2022-07-23T08:50:45;6.70;;;3.30;;
49241;SDS011;35079;52.704;13.814;2022-07-23T08:53:15;8.30;;;3.97;;
49241;SDS011;35079;52.704;13.814;2022-07-23T08:55:45;7.55;;;3.50;;
49241;SDS011;35079;52.704;13.814;2022-07-23T08:58:12;5.40;;;3.00;;
49241;SDS011;35079;52.704;13.814;2022-07-23T09:00:39;5.57;;;3.00;;
49241;SDS011;35079;52.704;13.814;2022-07-23T09:03:05;4.13;;;2.85;;
49241;SDS011;35079;52.704;13.814;2022-07-23T09:05:31;4.43;;;3.28;;
49241;SDS011;35079;52.704;13.814;2022-07-23T09:10:42;7.28;;;3.30;;
49241;SDS011;35079;52.704;13.814;2022-07-23T09:13:22;5.75;;;3.60;;
49241;SDS011;35079;52.704;13.814;2022-07-23T09:15:48;4.75;;;3.53;;
49241;SDS011;35079;52.704;13.814;2022-07-23T09:18:16;7.00;;;3.17;;
49241;SDS011;35079;52.704;13.814;2022-07-23T09:26:59;5.60;;;2.80;;
49241;SDS011;35079;52.704;13.814;2022-07-23T09:29:25;6.95;;;3.10;;
49241;SDS011;35079;52.704;13.814;2022-07-23T09:31:52;4.38;;;2.55;;
49241;SDS011;35079;52.704;13.814;2022-07-23T09:34:23;4.40;;;2.88;;
49241;SDS011;35079;52.704;13.814;2022-07-23T09:37:10;3.20;;;2.42;;
49241;SDS011;35079;52.704;13.814;2022-07-23T09:39:38;5.47;;;2.28;;
49241;SDS011;35079;52.704;13.814;2022-07-23T09:44:44;3.92;;;2.22;;
49241;SDS011;35079;52.704;13.814;2022-07-23T09:47:11;4.75;;;2.13;;
49241;SDS011;35079;52.704;13.814;2022-07-23T09:49:37;4.32;;;2.45;;
49241;SDS011;35079;52.704;13.814;2022-07-23T09:52:03;5.57;;;2.33;;
49241;SDS011;35079;52.704;13.814;2022-07-23T09:54:31;6.15;;;2.83;;
49241;SDS011;35079;52.704;13.814;2022-07-23T09:59:36;7.28;;;2.60;;
49241;SDS011;35079;52.704;13.814;2022-07-23T10:02:03;7.22;;;2.60;;
49241;SDS011;35079;52.704;13.814;2022-07-23T10:04:30;5.50;;;2.55;;
49241;SDS011;35079;52.704;13.814;2022-07-23T10:06:58;6.90;;;2.60;;
49241;SDS011;35079;52.704;13.814;2022-07-23T10:09:28;3.63;;;2.50;;
49241;SDS011;35079;52.704;13.814;2022-07-23T10:11:58;6.10;;;2.45;;
49241;SDS011;35079;52.704;13.814;2022-07-23T10:14:48;5.37;;;2.57;;
49241;SDS011;35079;52.704;13.814;2022-07-23T10:17:14;5.47;;;2.70;;
49241;SDS011;35079;52.704;13.814;2022-07-23T10:19:41;6.97;;;2.70;;
49241;SDS011;35079;52.704;13.814;2022-07-23T10:22:09;5.72;;;2.60;;
49241;SDS011;35079;52.704;13.814;2022-07-23T10:27:37;6.43;;;2.70;;
49241;SDS011;35079;52.704;13.814;2022-07-23T10:30:11;8.45;;;3.13;;
49241;SDS011;35079;52.704;13.814;2022-07-23T10:38:35;5.63;;;2.70;;
49241;SDS011;35079;52.704;13.814;2022-07-23T10:41:08;4.40;;;2.45;;
49241;SDS011;35079;52.704;13.814;2022-07-23T10:43:33;5.35;;;2.75;;
49241;SDS011;35079;52.704;13.814;2022-07-23T10:49:40;5.10;;;2.70;;
49241;SDS011;35079;52.704;13.814;2022-07-23T10:54:40;4.15;;;2.28;;
49241;SDS011;35079;52.704;13.814;2022-07-23T10:57:09;4.40;;;2.10;;
49241;SDS011;35079;52.704;13.814;2022-07-23T11:02:46;5.18;;;2.60;;
49241;SDS011;35079;52.704;13.814;2022-07-23T11:05:13;6.40;;;2.40;;
49241;SDS011;35079;52.704;13.814;2022-07-23T11:10:38;4.65;;;2.30;;
49241;SDS011;35079;52.704;13.814;2022-07-23T11:36:56;4.82;;;1.80;;
49241;SDS011;35079;52.704;13.814;2022-07-23T11:39:24;5.05;;;2.17;;
49241;SDS011;35079;52.704;13.814;2022-07-23T11:41:51;3.13;;;1.75;;
49241;SDS011;35079;52.704;13.814;2022-07-23T11:44:24;3.75;;;2.05;;
49241;SDS011;35079;52.704;13.814;2022-07-23T11:46:54;4.35;;;2.10;;
49241;SDS011;35079;52.704;13.814;2022-07-23T11:49:24;4.50;;;2.20;;
49241;SDS011;35079;52.704;13.814;2022-07-23T11:52:03;4.05;;;1.65;;
49241;SDS011;35079;52.704;13.814;2022-07-23T11:54:49;4.05;;;2.10;;
49241;SDS011;35079;52.704;13.814;2022-07-23T11:57:28;5.63;;;2.00;;
49241;SDS011;35079;52.704;13.814;2022-07-23T12:00:19;4.13;;;2.30;;
49241;SDS011;35079;52.704;13.814;2022-07-23T12:02:50;2.67;;;2.08;;
49241;SDS011;35079;52.704;13.814;2022-07-23T12:05:18;3.13;;;2.03;;
49241;SDS011;35079;52.704;13.814;2022-07-23T12:07:46;5.55;;;2.33;;
49241;SDS011;35079;52.704;13.814;2022-07-23T12:12:51;4.28;;;2.05;;
49241;SDS011;35079;52.704;13.814;2022-07-23T12:15:19;4.10;;;2.20;;
49241;SDS011;35079;52.704;13.814;2022-07-23T12:17:47;4.78;;;2.50;;
49241;SDS011;35079;52.704;13.814;2022-07-23T12:20:15;3.22;;;2.20;;
49241;SDS011;35079;52.704;13.814;2022-07-23T12:22:45;4.10;;;2.30;;
49241;SDS011;35079;52.704;13.814;2022-07-23T12:25:14;5.15;;;2.33;;
49241;SDS011;35079;52.704;13.814;2022-07-23T12:27:41;5.18;;;2.53;;
49241;SDS011;35079;52.704;13.814;2022-07-23T12:30:24;4.28;;;2.35;;
49241;SDS011;35079;52.704;13.814;2022-07-23T12:32:52;5.22;;;2.45;;
49241;SDS011;35079;52.704;13.814;2022-07-23T12:35:19;4.40;;;2.20;;
49241;SDS011;35079;52.704;13.814;2022-07-23T12:37:47;2.42;;;1.80;;
49241;SDS011;35079;52.704;13.814;2022-07-23T12:40:30;2.83;;;1.90;;
49241;SDS011;35079;52.704;13.814;2022-07-23T12:43:10;4.45;;;2.28;;
49241;SDS011;35079;52.704;13.814;2022-07-23T12:46:07;3.65;;;2.30;;
49241;SDS011;35079;52.704;13.814;2022-07-23T12:48:36;4.90;;;2.17;;
49241;SDS011;35079;52.704;13.814;2022-07-23T12:51:04;3.08;;;1.90;;
49241;SDS011;35079;52.704;13.814;2022-07-23T12:56:07;2.33;;;1.80;;
49241;SDS011;35079;52.704;13.814;2022-07-23T13:03:54;3.17;;;2.08;;
49241;SDS011;35079;52.704;13.814;2022-07-23T13:06:22;3.80;;;2.00;;
49241;SDS011;35079;52.704;13.814;2022-07-23T13:08:48;5.22;;;2.35;;
49241;SDS011;35079;52.704;13.814;2022-07-23T13:11:14;4.05;;;2.20;;
49241;SDS011;35079;52.704;13.814;2022-07-23T13:13:39;3.10;;;2.10;;
49241;SDS011;35079;52.704;13.814;2022-07-23T13:16:06;4.00;;;2.10;;
49241;SDS011;35079;52.704;13.814;2022-07-23T13:18:32;3.65;;;2.40;;
49241;SDS011;35079;52.704;13.814;2022-07-23T13:20:58;4.13;;;1.98;;
49241;SDS011;35079;52.704;13.814;2022-07-23T13:23:23;5.03;;;2.55;;
49241;SDS011;35079;52.704;13.814;2022-07-23T13:25:50;4.55;;;2.10;;
49241;SDS011;35079;52.704;13.814;2022-07-23T13:28:16;4.53;;;2.10;;
49241;SDS011;35079;52.704;13.814;2022-07-23T13:30:43;3.38;;;2.00;;
49241;SDS011;35079;52.704;13.814;2022-07-23T13:33:10;3.08;;;2.10;;
49241;SDS011;35079;52.704;13.814;2022-07-23T13:35:35;2.83;;;2.00;;
49241;SDS011;35079;52.704;13.814;2022-07-23T13:38:03;2.95;;;1.85;;
49241;SDS011;35079;52.704;13.814;2022-07-23T13:40:30;4.95;;;2.47;;
49241;SDS011;35079;52.704;13.814;2022-07-23T13:42:55;4.57;;;2.13;;
49241;SDS011;35079;52.704;13.814;2022-07-23T13:45:21;6.40;;;1.95;;
49241;SDS011;35079;52.704;13.814;2022-07-23T13:47:47;3.60;;;2.17;;
49241;SDS011;35079;52.704;13.814;2022-07-23T13:50:12;3.50;;;2.17;;
49241;SDS011;35079;52.704;13.814;2022-07-23T13:52:41;5.82;;;2.20;;
49241;SDS011;35079;52.704;13.814;2022-07-23T13:55:06;3.03;;;1.98;;
49241;SDS011;35079;52.704;13.814;2022-07-23T13:57:33;3.15;;;2.05;;
49241;SDS011;35079;52.704;13.814;2022-07-23T13:59:58;5.30;;;2.38;;
49241;SDS011;35079;52.704;13.814;2022-07-23T14:02:24;4.65;;;2.45;;
49241;SDS011;35079;52.704;13.814;2022-07-23T14:04:50;4.60;;;2.10;;
49241;SDS011;35079;52.704;13.814;2022-07-23T14:07:17;3.00;;;2.03;;
49241;SDS011;35079;52.704;13.814;2022-07-23T14:09:43;3.08;;;2.00;;
49241;SDS011;35079;52.704;13.814;2022-07-23T14:12:09;3.83;;;2.30;;
49241;SDS011;35079;52.704;13.814;2022-07-23T14:14:36;4.10;;;2.05;;
49241;SDS011;35079;52.704;13.814;2022-07-23T14:17:01;5.70;;;2.08;;
49241;SDS011;35079;52.704;13.814;2022-07-23T14:19:27;2.83;;;1.80;;
49241;SDS011;35079;52.704;13.814;2022-07-23T14:21:53;3.75;;;1.98;;
49241;SDS011;35079;52.704;13.814;2022-07-23T14:24:19;3.33;;;2.10;;
49241;SDS011;35079;52.704;13.814;2022-07-23T14:26:45;2.97;;;2.00;;
49241;SDS011;35079;52.704;13.814;2022-07-23T14:29:11;5.43;;;2.25;;
49241;SDS011;35079;52.704;13.814;2022-07-23T14:31:37;4.05;;;2.03;;
49241;SDS011;35079;52.704;13.814;2022-07-23T14:34:02;2.92;;;1.60;;
49241;SDS011;35079;52.704;13.814;2022-07-23T14:36:28;2.78;;;1.98;;
49241;SDS011;35079;52.704;13.814;2022-07-23T14:38:54;4.97;;;1.73;;
49241;SDS011;35079;52.704;13.814;2022-07-23T14:41:20;4.00;;;2.00;;
49241;SDS011;35079;52.704;13.814;2022-07-23T14:43:46;2.78;;;1.67;;
49241;SDS011;35079;52.704;13.814;2022-07-23T14:46:11;2.30;;;1.42;;
49241;SDS011;35079;52.704;13.814;2022-07-23T14:48:38;5.15;;;1.75;;
49241;SDS011;35079;52.704;13.814;2022-07-23T14:51:03;5.32;;;1.80;;
49241;SDS011;35079;52.704;13.814;2022-07-23T14:53:29;5.75;;;1.85;;
49241;SDS011;35079;52.704;13.814;2022-07-23T14:55:55;4.45;;;1.75;;
49241;SDS011;35079;52.704;13.814;2022-07-23T14:58:22;2.80;;;1.50;;
49241;SDS011;35079;52.704;13.814;2022-07-23T15:00:48;1.40;;;1.30;;
49241;SDS011;35079;52.704;13.814;2022-07-23T15:03:14;3.38;;;1.52;;
49241;SDS011;35079;52.704;13.814;2022-07-23T15:05:40;3.90;;;1.60;;
49241;SDS011;35079;52.704;13.814;2022-07-23T15:08:06;2.33;;;1.40;;
49241;SDS011;35079;52.704;13.814;2022-07-23T15:10:31;2.58;;;1.38;;
49241;SDS011;35079;52.704;13.814;2022-07-23T15:12:57;6.05;;;1.50;;
49241;SDS011;35079;52.704;13.814;2022-07-23T15:15:23;3.72;;;1.40;;
49241;SDS011;35079;52.704;13.814;2022-07-23T15:17:48;2.05;;;1.30;;
49241;SDS011;35079;52.704;13.814;2022-07-23T15:20:17;1.75;;;1.40;;
49241;SDS011;35079;52.704;13.814;2022-07-23T15:22:42;2.85;;;1.40;;
49241;SDS011;35079;52.704;13.814;2022-07-23T15:25:10;3.42;;;1.55;;
49241;SDS011;35079;52.704;13.814;2022-07-23T15:27:36;1.98;;;1.15;;
49241;SDS011;35079;52.704;13.814;2022-07-23T15:30:02;2.70;;;1.27;;
49241;SDS011;35079;52.704;13.814;2022-07-23T15:32:28;3.05;;;1.25;;
49241;SDS011;35079;52.704;13.814;2022-07-23T15:34:54;1.20;;;1.10;;
49241;SDS011;35079;52.704;13.814;2022-07-23T15:37:20;1.63;;;1.27;;
49241;SDS011;35079;52.704;13.814;2022-07-23T15:39:48;3.28;;;1.20;;
49241;SDS011;35079;52.704;13.814;2022-07-23T15:42:15;1.08;;;1.05;;
49241;SDS011;35079;52.704;13.814;2022-07-23T15:44:41;2.28;;;1.30;;
49241;SDS011;35079;52.704;13.814;2022-07-23T15:47:11;2.42;;;1.17;;
49241;SDS011;35079;52.704;13.814;2022-07-23T15:49:40;2.13;;;1.15;;
49241;SDS011;35079;52.704;13.814;2022-07-23T15:52:06;5.45;;;1.25;;
49241;SDS011;35079;52.704;13.814;2022-07-23T15:54:34;1.45;;;1.10;;
49241;SDS011;35079;52.704;13.814;2022-07-23T15:57:02;2.00;;;1.13;;
49241;SDS011;35079;52.704;13.814;2022-07-23T15:59:28;2.85;;;1.10;;
49241;SDS011;35079;52.704;13.814;2022-07-23T16:01:54;4.63;;;1.38;;
49241;SDS011;35079;52.704;13.814;2022-07-23T16:04:20;1.50;;;1.20;;
49241;SDS011;35079;52.704;13.814;2022-07-23T16:06:46;1.27;;;1.13;;
49241;SDS011;35079;52.704;13.814;2022-07-23T16:09:11;1.52;;;1.30;;
49241;SDS011;35079;52.704;13.814;2022-07-23T16:11:37;1.83;;;1.20;;
49241;SDS011;35079;52.704;13.814;2022-07-23T16:14:03;1.52;;;1.00;;
49241;SDS011;35079;52.704;13.814;2022-07-23T16:16:29;2.40;;;1.20;;
49241;SDS011;35079;52.704;13.814;2022-07-23T16:18:54;1.88;;;1.08;;
49241;SDS011;35079;52.704;13.814;2022-07-23T16:21:21;2.33;;;0.90;;
49241;SDS011;35079;52.704;13.814;2022-07-23T16:23:47;3.30;;;1.10;;
49241;SDS011;35079;52.704;13.814;2022-07-23T16:26:12;1.55;;;1.20;;
49241;SDS011;35079;52.704;13.814;2022-07-23T16:28:39;2.08;;;0.95;;
49241;SDS011;35079;52.704;13.814;2022-07-23T16:31:05;2.05;;;1.00;;
49241;SDS011;35079;52.704;13.814;2022-07-23T16:33:30;2.33;;;1.10;;
49241;SDS011;35079;52.704;13.814;2022-07-23T16:35:56;2.22;;;1.05;;
49241;SDS011;35079;52.704;13.814;2022-07-23T16:38:22;2.00;;;1.23;;
49241;SDS011;35079;52.704;13.814;2022-07-23T16:40:50;1.60;;;1.00;;
49241;SDS011;35079;52.704;13.814;2022-07-23T16:43:16;1.60;;;1.10;;
49241;SDS011;35079;52.704;13.814;2022-07-23T16:45:43;2.33;;;1.05;;
49241;SDS011;35079;52.704;13.814;2022-07-23T16:48:09;3.38;;;1.20;;
49241;SDS011;35079;52.704;13.814;2022-07-23T16:50:34;1.30;;;1.20;;
49241;SDS011;35079;52.704;13.814;2022-07-23T16:53:00;1.23;;;1.00;;
49241;SDS011;35079;52.704;13.814;2022-07-23T16:55:26;1.63;;;1.13;;
49241;SDS011;35079;52.704;13.814;2022-07-23T16:57:51;1.70;;;1.20;;
49241;SDS011;35079;52.704;13.814;2022-07-23T17:00:17;3.53;;;1.30;;
49241;SDS011;35079;52.704;13.814;2022-07-23T17:02:43;3.13;;;1.20;;
49241;SDS011;35079;52.704;13.814;2022-07-23T17:05:09;1.60;;;1.35;;
49241;SDS011;35079;52.704;13.814;2022-07-23T17:07:35;1.20;;;1.10;;
49241;SDS011;35079;52.704;13.814;2022-07-23T17:10:03;1.83;;;1.38;;
49241;SDS011;35079;52.704;13.814;2022-07-23T17:12:30;2.13;;;1.55;;
49241;SDS011;35079;52.704;13.814;2022-07-23T17:14:55;1.70;;;1.27;;
49241;SDS011;35079;52.704;13.814;2022-07-23T17:17:21;3.03;;;1.33;;
49241;SDS011;35079;52.704;13.814;2022-07-23T17:19:47;1.67;;;1.33;;
49241;SDS011;35079;52.704;13.814;2022-07-23T17:22:13;2.55;;;1.50;;
49241;SDS011;35079;52.704;13.814;2022-07-23T17:24:38;3.13;;;1.48;;
49241;SDS011;35079;52.704;13.814;2022-07-23T17:27:04;1.90;;;1.27;;
49241;SDS011;35079;52.704;13.814;2022-07-23T17:29:30;3.08;;;1.38;;
49241;SDS011;35079;52.704;13.814;2022-07-23T17:31:56;1.50;;;1.40;;
49241;SDS011;35079;52.704;13.814;2022-07-23T17:34:21;2.58;;;1.23;;
49241;SDS011;35079;52.704;13.814;2022-07-23T17:36:47;2.47;;;1.42;;
49241;SDS011;35079;52.704;13.814;2022-07-23T17:39:16;2.85;;;1.50;;
49241;SDS011;35079;52.704;13.814;2022-07-23T17:41:43;1.38;;;1.20;;
49241;SDS011;35079;52.704;13.814;2022-07-23T17:44:12;4.18;;;1.20;;
49241;SDS011;35079;52.704;13.814;2022-07-23T17:46:38;2.25;;;1.30;;
49241;SDS011;35079;52.704;13.814;2022-07-23T17:49:04;3.90;;;1.33;;
49241;SDS011;35079;52.704;13.814;2022-07-23T17:51:30;3.13;;;1.10;;
49241;SDS011;35079;52.704;13.814;2022-07-23T17:53:57;1.42;;;0.98;;
49241;SDS011;35079;52.704;13.814;2022-07-23T17:56:22;2.42;;;1.20;;
49241;SDS011;35079;52.704;13.814;2022-07-23T17:58:48;1.08;;;0.95;;
49241;SDS011;35079;52.704;13.814;2022-07-23T18:01:14;2.00;;;1.10;;
49241;SDS011;35079;52.704;13.814;2022-07-23T18:03:40;0.80;;;0.80;;
49241;SDS011;35079;52.704;13.814;2022-07-23T18:06:11;1.70;;;0.90;;
49241;SDS011;35079;52.704;13.814;2022-07-23T18:08:49;1.73;;;1.20;;
49241;SDS011;35079;52.704;13.814;2022-07-23T18:11:15;1.85;;;1.00;;
49241;SDS011;35079;52.704;13.814;2022-07-23T18:13:41;3.45;;;0.90;;
49241;SDS011;35079;52.704;13.814;2022-07-23T18:16:16;2.08;;;0.90;;
49241;SDS011;35079;52.704;13.814;2022-07-23T18:18:42;2.75;;;0.95;;
49241;SDS011;35079;52.704;13.814;2022-07-23T18:21:08;1.00;;;0.80;;
49241;SDS011;35079;52.704;13.814;2022-07-23T18:23:34;2.35;;;0.73;;
49241;SDS011;35079;52.704;13.814;2022-07-23T18:26:00;2.00;;;1.20;;
49241;SDS011;35079;52.704;13.814;2022-07-23T18:29:00;2.63;;;1.00;;
49241;SDS011;35079;52.704;13.814;2022-07-23T18:31:26;1.08;;;1.00;;
49241;SDS011;35079;52.704;13.814;2022-07-23T18:40:02;1.40;;;0.95;;
49241;SDS011;35079;52.704;13.814;2022-07-23T18:42:55;5.47;;;0.90;;
49241;SDS011;35079;52.704;13.814;2022-07-23T18:45:32;2.17;;;0.93;;
49241;SDS011;35079;52.704;13.814;2022-07-23T18:48:17;1.85;;;0.80;;
49241;SDS011;35079;52.704;13.814;2022-07-23T18:50:43;1.92;;;1.30;;
49241;SDS011;35079;52.704;13.814;2022-07-23T18:53:13;1.98;;;0.85;;
49241;SDS011;35079;52.704;13.814;2022-07-23T18:55:41;1.73;;;0.77;;
49241;SDS011;35079;52.704;13.814;2022-07-23T18:58:07;0.93;;;0.70;;
49241;SDS011;35079;52.704;13.814;2022-07-23T19:00:34;1.17;;;0.80;;
49241;SDS011;35079;52.704;13.814;2022-07-23T19:03:01;0.73;;;0.70;;
49241;SDS011;35079;52.704;13.814;2022-07-23T19:05:47;0.77;;;0.77;;
49241;SDS011;35079;52.704;13.814;2022-07-23T19:08:13;2.45;;;0.90;;
49241;SDS011;35079;52.704;13.814;2022-07-23T19:10:38;1.63;;;0.90;;
49241;SDS011;35079;52.704;13.814;2022-07-23T19:13:04;2.17;;;0.90;;
49241;SDS011;35079;52.704;13.814;2022-07-23T19:15:31;2.15;;;0.80;;
49241;SDS011;35079;52.704;13.814;2022-07-23T19:17:57;1.30;;;0.90;;
49241;SDS011;35079;52.704;13.814;2022-07-23T19:20:23;1.92;;;0.77;;
49241;SDS011;35079;52.704;13.814;2022-07-23T19:22:49;1.77;;;0.90;;
49241;SDS011;35079;52.704;13.814;2022-07-23T19:25:15;1.00;;;0.63;;
49241;SDS011;35079;52.704;13.814;2022-07-23T19:27:41;1.05;;;0.70;;
49241;SDS011;35079;52.704;13.814;2022-07-23T19:30:08;1.50;;;0.93;;
49241;SDS011;35079;52.704;13.814;2022-07-23T19:32:35;1.00;;;1.00;;
49241;SDS011;35079;52.704;13.814;2022-07-23T19:35:01;1.38;;;0.90;;
49241;SDS011;35079;52.704;13.814;2022-07-23T19:37:30;1.13;;;0.50;;
49241;SDS011;35079;52.704;13.814;2022-07-23T19:39:56;1.33;;;0.80;;
49241;SDS011;35079;52.704;13.814;2022-07-23T19:42:22;0.82;;;0.80;;
49241;SDS011;35079;52.704;13.814;2022-07-23T19:44:47;1.95;;;0.93;;
49241;SDS011;35079;52.704;13.814;2022-07-23T19:47:13;1.23;;;0.82;;
49241;SDS011;35079;52.704;13.814;2022-07-23T19:49:39;0.82;;;0.80;;
49241;SDS011;35079;52.704;13.814;2022-07-23T19:52:04;2.28;;;1.02;;
49241;SDS011;35079;52.704;13.814;2022-07-23T19:54:31;0.90;;;0.90;;
49241;SDS011;35079;52.704;13.814;2022-07-23T19:56:56;2.67;;;1.20;;
49241;SDS011;35079;52.704;13.814;2022-07-23T19:59:22;1.65;;;0.88;;
49241;SDS011;35079;52.704;13.814;2022-07-23T20:01:48;1.67;;;0.82;;
49241;SDS011;35079;52.704;13.814;2022-07-23T20:04:14;1.90;;;0.82;;
49241;SDS011;35079;52.704;13.814;2022-07-23T20:06:39;1.58;;;0.77;;
49241;SDS011;35079;52.704;13.814;2022-07-23T20:09:05;1.13;;;0.80;;
49241;SDS011;35079;52.704;13.814;2022-07-23T20:11:31;1.00;;;0.80;;
49241;SDS011;35079;52.704;13.814;2022-07-23T20:13:57;1.20;;;0.70;;
49241;SDS011;35079;52.704;13.814;2022-07-23T20:16:23;1.63;;;0.75;;
49241;SDS011;35079;52.704;13.814;2022-07-23T20:18:49;0.68;;;0.65;;
49241;SDS011;35079;52.704;13.814;2022-07-23T20:21:15;1.55;;;0.73;;
49241;SDS011;35079;52.704;13.814;2022-07-23T20:23:41;1.05;;;0.80;;
49241;SDS011;35079;52.704;13.814;2022-07-23T20:26:06;1.67;;;0.70;;
49241;SDS011;35079;52.704;13.814;2022-07-23T20:28:32;1.67;;;0.80;;
49241;SDS011;35079;52.704;13.814;2022-07-23T20:30:58;2.20;;;0.90;;
49241;SDS011;35079;52.704;13.814;2022-07-23T20:33:29;1.17;;;0.70;;
49241;SDS011;35079;52.704;13.814;2022-07-23T20:35:55;1.38;;;0.80;;
49241;SDS011;35079;52.704;13.814;2022-07-23T20:38:22;1.50;;;1.00;;
49241;SDS011;35079;52.704;13.814;2022-07-23T20:40:48;1.85;;;0.90;;
49241;SDS011;35079;52.704;13.814;2022-07-23T20:43:14;1.50;;;0.65;;
49241;SDS011;35079;52.704;13.814;2022-07-23T20:45:40;1.90;;;1.00;;
49241;SDS011;35079;52.704;13.814;2022-07-23T20:48:06;1.50;;;0.98;;
49241;SDS011;35079;52.704;13.814;2022-07-23T20:50:33;2.00;;;0.82;;
49241;SDS011;35079;52.704;13.814;2022-07-23T20:53:01;1.60;;;0.82;;
49241;SDS011;35079;52.704;13.814;2022-07-23T20:55:28;1.45;;;1.00;;
49241;SDS011;35079;52.704;13.814;2022-07-23T20:58:12;1.85;;;0.80;;
49241;SDS011;35079;52.704;13.814;2022-07-23T21:00:38;2.17;;;0.90;;
49241;SDS011;35079;52.704;13.814;2022-07-23T21:03:07;1.38;;;0.80;;
49241;SDS011;35079;52.704;13.814;2022-07-23T21:05:33;1.65;;;1.10;;
49241;SDS011;35079;52.704;13.814;2022-07-23T21:08:02;1.30;;;0.70;;
49241;SDS011;35079;52.704;13.814;2022-07-23T21:10:28;2.78;;;0.80;;
49241;SDS011;35079;52.704;13.814;2022-07-23T21:33:37;2.08;;;0.77;;
49241;SDS011;35079;52.704;13.814;2022-07-23T22:06:18;3.90;;;1.30;;
49241;SDS011;35079;52.704;13.814;2022-07-23T22:08:44;3.47;;;1.30;;
49241;SDS011;35079;52.704;13.814;2022-07-23T22:41:42;0.82;;;0.80;;
49241;SDS011;35079;52.704;13.814;2022-07-23T22:43:46;0.80;;;0.80;;
49241;SDS011;35079;52.704;13.814;2022-07-23T22:46:27;0.80;;;0.70;;
49241;SDS011;35079;52.704;13.814;2022-07-23T22:49:34;1.17;;;0.90;;
49241;SDS011;35079;52.704;13.814;2022-07-23T22:52:01;2.63;;;0.90;;
49241;SDS011;35079;52.704;13.814;2022-07-23T22:54:33;1.17;;;1.00;;
49241;SDS011;35079;52.704;13.814;2022-07-23T22:56:59;1.30;;;1.20;;
49241;SDS011;35079;52.704;13.814;2022-07-23T22:59:27;1.40;;;0.90;;
49241;SDS011;35079;52.704;13.814;2022-07-23T23:04:57;1.35;;;0.80;;
49241;SDS011;35079;52.704;13.814;2022-07-23T23:07:23;1.13;;;0.93;;
49241;SDS011;35079;52.704;13.814;2022-07-23T23:09:59;2.53;;;0.98;;
49241;SDS011;35079;52.704;13.814;2022-07-23T23:12:24;1.25;;;1.10;;
49241;SDS011;35079;52.704;13.814;2022-07-23T23:14:50;2.25;;;1.20;;
49241;SDS011;35079;52.704;13.814;2022-07-23T23:17:16;1.10;;;0.93;;
49241;SDS011;35079;52.704;13.814;2022-07-23T23:19:42;1.02;;;0.93;;